Time,TemperatureF,DewpointF,PressureIn,WindDirection,WindDirectionDegrees,WindSpeedMPH,WindSpeedGustMPH,Humidity,HourlyPrecipIn,Conditions,Clouds,dailyrainin,SoftwareType,DateUTC
2013-02-14 00:00:00,32.6,28.9,29.71,SW,223,4.0,6.0,86,0.00,,---,0.00,VWS V14.01,2013-02-14 06:00:00,
2013-02-14 00:05:00,32.6,28.9,29.70,SW,216,5.0,5.0,86,0.00,,---,0.00,VWS V14.01,2013-02-14 06:05:00,
2013-02-14 00:10:00,32.6,28.9,29.70,SSW,202,5.0,5.0,86,0.00,,---,0.00,VWS V14.01,2013-02-14 06:10:00,
2013-02-14 00:15:00,32.7,29.0,29.70,South,184,4.0,7.0,86,0.00,,---,0.00,VWS V14.01,2013-02-14 06:15:00,
2013-02-14 00:20:00,32.6,28.9,29.70,SSW,206,6.0,6.0,86,0.00,,---,0.00,VWS V14.01,2013-02-14 06:20:00,
2013-02-14 00:25:00,32.7,29.0,29.70,SW,217,3.0,6.0,86,0.00,,---,0.00,VWS V14.01,2013-02-14 06:25:00,
2013-02-14 00:30:00,32.7,29.0,29.70,SSW,211,6.0,6.0,86,0.00,,---,0.00,VWS V14.01,2013-02-14 06:30:00,
2013-02-14 00:35:00,32.6,28.9,29.70,SSW,209,5.0,6.0,86,0.00,,---,0.00,VWS V14.01,2013-02-14 06:35:00,
2013-02-14 00:40:00,32.6,28.9,29.70,SW,221,5.0,6.0,86,0.00,,---,0.00,VWS V14.01,2013-02-14 06:40:00,
2013-02-14 00:45:00,32.7,29.0,29.69,WSW,238,3.0,6.0,86,0.00,,---,0.00,VWS V14.01,2013-02-14 06:45:00,
2013-02-14 00:50:00,32.7,29.0,29.69,SW,214,4.0,5.0,86,0.00,,---,0.00,VWS V14.01,2013-02-14 06:50:00,
2013-02-14 00:55:00,32.8,29.1,29.69,SW,218,4.0,6.0,86,0.00,,---,0.00,VWS V14.01,2013-02-14 06:55:00,
2013-02-14 01:00:00,32.8,29.1,29.69,SSW,213,6.0,7.0,86,0.00,,---,0.00,VWS V14.01,2013-02-14 07:00:00,
2013-02-14 01:05:00,32.9,29.2,29.70,SSW,212,5.0,7.0,86,0.00,,---,0.00,VWS V14.01,2013-02-14 07:05:00,
2013-02-14 01:10:00,32.9,29.2,29.69,SW,232,3.0,6.0,86,0.00,,---,0.00,VWS V14.01,2013-02-14 07:10:00,
2013-02-14 01:15:00,33.0,29.3,29.69,SW,223,5.0,5.0,86,0.00,,---,0.00,VWS V14.01,2013-02-14 07:15:00,
2013-02-14 01:20:00,33.1,29.4,29.69,SSW,208,5.0,6.0,86,0.00,,---,0.00,VWS V14.01,2013-02-14 07:20:00,
2013-02-14 01:25:00,33.2,29.5,29.69,SSW,209,4.0,4.0,86,0.00,,---,0.00,VWS V14.01,2013-02-14 07:25:00,
2013-02-14 01:30:00,33.2,29.5,29.69,SSW,209,1.0,2.0,86,0.00,,---,0.00,VWS V14.01,2013-02-14 07:30:00,
2013-02-14 01:35:00,33.1,29.4,29.68,SW,222,3.0,4.0,86,0.00,,---,0.00,VWS V14.01,2013-02-14 07:35:00,
2013-02-14 01:40:00,33.3,29.9,29.68,SW,217,4.0,7.0,87,0.00,,---,0.00,VWS V14.01,2013-02-14 07:40:00,
2013-02-14 01:45:00,33.5,30.0,29.68,SW,217,4.0,5.0,87,0.00,,---,0.00,VWS V14.01,2013-02-14 07:45:00,
2013-02-14 01:50:00,33.7,30.0,29.68,SW,215,6.0,7.0,86,0.00,,---,0.00,VWS V14.01,2013-02-14 07:50:00,
2013-02-14 01:55:00,33.9,30.5,29.68,SSW,200,5.0,7.0,87,0.00,,---,0.00,VWS V14.01,2013-02-14 07:55:00,
2013-02-14 02:00:00,34.2,30.7,29.68,SSW,198,5.0,8.0,87,0.00,,---,0.00,VWS V14.01,2013-02-14 08:00:00,
2013-02-14 02:05:00,34.3,31.1,29.67,SSW,193,8.0,8.0,88,0.00,,---,0.00,VWS V14.01,2013-02-14 08:05:00,
2013-02-14 02:10:00,34.3,31.4,29.67,SSW,192,7.0,7.0,89,0.00,,---,0.00,VWS V14.01,2013-02-14 08:10:00,
2013-02-14 02:15:00,34.2,31.6,29.67,SSW,196,6.0,8.0,90,0.00,,---,0.00,VWS V14.01,2013-02-14 08:15:00,
2013-02-14 02:20:00,34.1,31.8,29.67,South,181,6.0,7.0,91,0.00,,---,0.00,VWS V14.01,2013-02-14 08:20:00,
2013-02-14 02:25:00,34.1,31.8,29.66,SSW,207,3.0,6.0,91,0.00,,---,0.00,VWS V14.01,2013-02-14 08:25:00,
2013-02-14 02:30:00,34.0,31.9,29.66,SSW,202,3.0,6.0,92,0.00,,---,0.00,VWS V14.01,2013-02-14 08:30:00,
2013-02-14 02:35:00,34.0,31.9,29.66,SSW,194,6.0,6.0,92,0.01,,---,0.01,VWS V14.01,2013-02-14 08:35:00,
2013-02-14 02:40:00,33.9,32.1,29.65,SSW,200,5.0,5.0,93,0.01,,---,0.01,VWS V14.01,2013-02-14 08:40:00,
2013-02-14 02:45:00,33.9,32.1,29.65,South,178,4.0,4.0,93,0.01,,---,0.01,VWS V14.01,2013-02-14 08:45:00,
2013-02-14 02:50:00,33.9,32.1,29.65,SSW,192,6.0,6.0,93,0.01,,---,0.01,VWS V14.01,2013-02-14 08:50:00,
2013-02-14 02:55:00,33.9,32.1,29.65,South,181,7.0,8.0,93,0.01,,---,0.01,VWS V14.01,2013-02-14 08:55:00,
2013-02-14 03:00:00,33.7,32.2,29.64,South,187,5.0,8.0,94,0.01,,---,0.01,VWS V14.01,2013-02-14 09:00:00,
2013-02-14 03:05:00,33.6,32.1,29.64,SSW,198,3.0,7.0,94,0.01,,---,0.01,VWS V14.01,2013-02-14 09:05:00,
2013-02-14 03:10:00,33.5,32.0,29.64,SSW,198,7.0,7.0,94,0.01,,---,0.01,VWS V14.01,2013-02-14 09:10:00,
2013-02-14 03:15:00,33.5,32.0,29.63,South,190,5.0,5.0,94,0.01,,---,0.01,VWS V14.01,2013-02-14 09:15:00,
2013-02-14 03:20:00,33.4,31.9,29.63,SSW,195,2.0,5.0,94,0.01,,---,0.01,VWS V14.01,2013-02-14 09:20:00,
2013-02-14 03:25:00,33.4,31.9,29.63,South,172,2.0,3.0,94,0.01,,---,0.01,VWS V14.01,2013-02-14 09:25:00,
2013-02-14 03:30:00,33.3,32.0,29.62,South,170,2.0,2.0,95,0.01,,---,0.01,VWS V14.01,2013-02-14 09:30:00,
2013-02-14 03:35:00,33.2,31.9,29.62,South,178,2.0,5.0,95,0.00,,---,0.01,VWS V14.01,2013-02-14 09:35:00,
2013-02-14 03:40:00,33.2,31.9,29.62,SSE,165,2.0,3.0,95,0.00,,---,0.01,VWS V14.01,2013-02-14 09:40:00,
2013-02-14 03:45:00,33.2,31.9,29.62,South,176,3.0,6.0,95,0.00,,---,0.01,VWS V14.01,2013-02-14 09:45:00,
2013-02-14 03:50:00,33.2,31.9,29.62,SSE,164,4.0,5.0,95,0.00,,---,0.01,VWS V14.01,2013-02-14 09:50:00,
2013-02-14 03:55:00,33.2,31.9,29.61,SSE,157,5.0,5.0,95,0.00,,---,0.01,VWS V14.01,2013-02-14 09:55:00,
2013-02-14 04:00:00,33.2,31.9,29.61,SSE,161,3.0,6.0,95,0.00,,---,0.01,VWS V14.01,2013-02-14 10:00:00,
2013-02-14 04:05:00,33.2,32.2,29.61,SE,141,5.0,6.0,96,0.00,,---,0.01,VWS V14.01,2013-02-14 10:05:00,
2013-02-14 04:10:00,33.3,32.3,29.60,SSE,163,2.0,6.0,96,0.00,,---,0.01,VWS V14.01,2013-02-14 10:10:00,
2013-02-14 04:15:00,33.3,32.3,29.60,SE,143,2.0,5.0,96,0.00,,---,0.01,VWS V14.01,2013-02-14 10:15:00,
2013-02-14 04:20:00,33.3,32.3,29.60,SSE,151,3.0,7.0,96,0.00,,---,0.01,VWS V14.01,2013-02-14 10:20:00,
2013-02-14 04:25:00,33.4,32.4,29.60,SSE,165,4.0,6.0,96,0.00,,---,0.01,VWS V14.01,2013-02-14 10:25:00,
2013-02-14 04:30:00,33.4,32.4,29.60,SSE,159,3.0,4.0,96,0.00,,---,0.01,VWS V14.01,2013-02-14 10:30:00,
2013-02-14 04:35:00,33.4,32.4,29.59,SE,145,3.0,6.0,96,0.00,,---,0.01,VWS V14.01,2013-02-14 10:35:00,
2013-02-14 04:40:00,33.3,32.3,29.60,SSE,167,5.0,5.0,96,0.00,,---,0.01,VWS V14.01,2013-02-14 10:40:00,
2013-02-14 04:45:00,33.3,32.3,29.60,South,177,3.0,5.0,96,0.00,,---,0.01,VWS V14.01,2013-02-14 10:45:00,
2013-02-14 04:50:00,33.3,32.3,29.60,South,170,4.0,5.0,96,0.00,,---,0.01,VWS V14.01,2013-02-14 10:50:00,
2013-02-14 04:55:00,33.3,32.3,29.60,South,176,3.0,6.0,96,0.00,,---,0.01,VWS V14.01,2013-02-14 10:55:00,
2013-02-14 05:00:00,33.3,32.3,29.60,SSE,162,6.0,6.0,96,0.00,,---,0.01,VWS V14.01,2013-02-14 11:00:00,
2013-02-14 05:05:00,33.2,32.2,29.60,South,184,5.0,5.0,96,0.00,,---,0.01,VWS V14.01,2013-02-14 11:05:00,
2013-02-14 05:10:00,33.3,32.3,29.60,SSW,198,4.0,5.0,96,0.00,,---,0.01,VWS V14.01,2013-02-14 11:10:00,
2013-02-14 05:15:00,33.3,32.3,29.59,South,175,3.0,4.0,96,0.00,,---,0.01,VWS V14.01,2013-02-14 11:15:00,
2013-02-14 05:20:00,33.3,32.3,29.59,South,172,4.0,5.0,96,0.00,,---,0.01,VWS V14.01,2013-02-14 11:20:00,
2013-02-14 05:25:00,33.3,32.3,29.59,South,189,3.0,4.0,96,0.00,,---,0.01,VWS V14.01,2013-02-14 11:25:00,
2013-02-14 05:30:00,33.3,32.3,29.59,SSW,202,2.0,4.0,96,0.00,,---,0.01,VWS V14.01,2013-02-14 11:30:00,
2013-02-14 05:35:00,33.3,32.3,29.59,South,190,3.0,4.0,96,0.00,,---,0.01,VWS V14.01,2013-02-14 11:35:00,
2013-02-14 05:40:00,33.3,32.3,29.59,South,178,4.0,5.0,96,0.00,,---,0.01,VWS V14.01,2013-02-14 11:40:00,
2013-02-14 05:45:00,33.3,32.3,29.59,South,177,4.0,5.0,96,0.00,,---,0.01,VWS V14.01,2013-02-14 11:45:00,
2013-02-14 05:50:00,33.3,32.3,29.59,SSW,196,5.0,5.0,96,0.00,,---,0.01,VWS V14.01,2013-02-14 11:50:00,
2013-02-14 05:55:00,33.4,32.4,29.59,SSW,192,6.0,7.0,96,0.00,,---,0.01,VWS V14.01,2013-02-14 11:55:00,
2013-02-14 06:00:00,33.4,32.4,29.59,SSW,199,4.0,7.0,96,0.00,,---,0.01,VWS V14.01,2013-02-14 12:00:00,
2013-02-14 06:05:00,33.4,32.4,29.59,SSW,198,3.0,4.0,96,0.00,,---,0.01,VWS V14.01,2013-02-14 12:05:00,
2013-02-14 06:10:00,33.4,32.4,29.59,SSW,192,4.0,5.0,96,0.00,,---,0.01,VWS V14.01,2013-02-14 12:10:00,
2013-02-14 06:15:00,33.4,32.4,29.59,SSW,192,5.0,5.0,96,0.00,,---,0.01,VWS V14.01,2013-02-14 12:15:00,
2013-02-14 06:20:00,33.4,32.4,29.58,SSW,194,3.0,4.0,96,0.00,,---,0.01,VWS V14.01,2013-02-14 12:20:00,
2013-02-14 06:25:00,33.4,32.4,29.58,South,190,4.0,5.0,96,0.00,,---,0.01,VWS V14.01,2013-02-14 12:25:00,
2013-02-14 06:30:00,33.4,32.4,29.58,SSW,202,2.0,2.0,96,0.00,,---,0.01,VWS V14.01,2013-02-14 12:30:00,
2013-02-14 06:35:00,33.4,32.4,29.59,SSW,202,2.0,3.0,96,0.00,,---,0.01,VWS V14.01,2013-02-14 12:35:00,
2013-02-14 06:40:00,33.5,32.5,29.59,SSW,207,3.0,3.0,96,0.00,,---,0.01,VWS V14.01,2013-02-14 12:40:00,
2013-02-14 06:45:00,33.7,32.7,29.59,SSW,205,1.0,3.0,96,0.00,,---,0.01,VWS V14.01,2013-02-14 12:45:00,
2013-02-14 06:50:00,33.7,32.7,29.59,SW,217,4.0,6.0,96,0.00,,---,0.01,VWS V14.01,2013-02-14 12:50:00,
2013-02-14 06:55:00,33.9,32.6,29.59,SW,215,4.0,4.0,95,0.00,,---,0.01,VWS V14.01,2013-02-14 12:55:00,
2013-02-14 07:00:00,33.9,32.6,29.59,WSW,252,5.0,6.0,95,0.00,,---,0.01,VWS V14.01,2013-02-14 13:00:00,
2013-02-14 07:05:00,34.0,32.7,29.59,WSW,238,4.0,5.0,95,0.00,,---,0.01,VWS V14.01,2013-02-14 13:05:00,
2013-02-14 07:10:00,34.1,32.8,29.59,SW,232,4.0,4.0,95,0.00,,---,0.01,VWS V14.01,2013-02-14 13:10:00,
2013-02-14 07:15:00,34.2,32.7,29.59,SW,230,2.0,7.0,94,0.00,,---,0.01,VWS V14.01,2013-02-14 13:15:00,
2013-02-14 07:20:00,34.3,32.8,29.59,SW,226,5.0,7.0,94,0.00,,---,0.01,VWS V14.01,2013-02-14 13:20:00,
2013-02-14 07:25:00,34.3,32.8,29.59,WSW,244,4.0,4.0,94,0.00,,---,0.01,VWS V14.01,2013-02-14 13:25:00,
2013-02-14 07:30:00,34.3,32.5,29.59,SW,228,2.0,4.0,93,0.00,,---,0.01,VWS V14.01,2013-02-14 13:30:00,
2013-02-14 07:35:00,34.3,32.5,29.59,WSW,241,5.0,6.0,93,0.00,,---,0.01,VWS V14.01,2013-02-14 13:35:00,
2013-02-14 07:40:00,34.3,32.5,29.59,SW,232,6.0,7.0,93,0.00,,---,0.01,VWS V14.01,2013-02-14 13:40:00,
2013-02-14 07:45:00,34.3,32.5,29.59,SW,236,5.0,6.0,93,0.00,,---,0.01,VWS V14.01,2013-02-14 13:45:00,
2013-02-14 07:50:00,34.4,32.6,29.59,WSW,253,5.0,6.0,93,0.00,,---,0.01,VWS V14.01,2013-02-14 13:50:00,
2013-02-14 07:55:00,34.4,32.6,29.60,WSW,244,9.0,9.0,93,0.00,,---,0.01,VWS V14.01,2013-02-14 13:55:00,
2013-02-14 08:00:00,34.4,32.6,29.60,West,261,3.0,7.0,93,0.01,,---,0.02,VWS V14.01,2013-02-14 14:00:00,
2013-02-14 08:05:00,34.5,32.4,29.60,WSW,255,7.0,7.0,92,0.01,,---,0.02,VWS V14.01,2013-02-14 14:05:00,
2013-02-14 08:10:00,34.6,32.5,29.59,WSW,246,7.0,7.0,92,0.01,,---,0.02,VWS V14.01,2013-02-14 14:10:00,
2013-02-14 08:15:00,34.6,32.5,29.59,West,273,4.0,4.0,92,0.01,,---,0.02,VWS V14.01,2013-02-14 14:15:00,
2013-02-14 08:20:00,34.6,32.5,29.59,WNW,290,4.0,5.0,92,0.02,,---,0.03,VWS V14.01,2013-02-14 14:20:00,
2013-02-14 08:25:00,34.7,32.6,29.59,WSW,255,4.0,8.0,92,0.02,,---,0.03,VWS V14.01,2013-02-14 14:25:00,
2013-02-14 08:30:00,34.7,32.3,29.59,WSW,252,2.0,5.0,91,0.02,,---,0.03,VWS V14.01,2013-02-14 14:30:00,
2013-02-14 08:35:00,34.7,32.3,29.59,West,265,5.0,7.0,91,0.02,,---,0.03,VWS V14.01,2013-02-14 14:35:00,
2013-02-14 08:40:00,34.7,32.3,29.59,WSW,250,3.0,3.0,91,0.02,,---,0.03,VWS V14.01,2013-02-14 14:40:00,
2013-02-14 08:45:00,34.7,32.3,29.59,WSW,254,6.0,7.0,91,0.02,,---,0.03,VWS V14.01,2013-02-14 14:45:00,
2013-02-14 08:50:00,34.6,32.2,29.59,WSW,257,4.0,7.0,91,0.02,,---,0.03,VWS V14.01,2013-02-14 14:50:00,
2013-02-14 08:55:00,34.5,32.2,29.60,SW,227,4.0,6.0,91,0.02,,---,0.03,VWS V14.01,2013-02-14 14:55:00,
2013-02-14 09:00:00,34.4,32.3,29.60,WSW,254,4.0,4.0,92,0.01,,---,0.03,VWS V14.01,2013-02-14 15:00:00,
2013-02-14 09:05:00,34.4,32.3,29.60,West,259,2.0,6.0,92,0.02,,---,0.04,VWS V14.01,2013-02-14 15:05:00,
2013-02-14 09:10:00,34.4,32.3,29.60,WSW,237,5.0,5.0,92,0.02,,---,0.04,VWS V14.01,2013-02-14 15:10:00,
2013-02-14 09:15:00,34.4,32.3,29.60,WSW,255,1.0,4.0,92,0.02,,---,0.04,VWS V14.01,2013-02-14 15:15:00,
2013-02-14 09:20:00,34.4,32.3,29.60,WSW,250,5.0,6.0,92,0.02,,---,0.04,VWS V14.01,2013-02-14 15:20:00,
2013-02-14 09:25:00,34.4,32.3,29.60,WNW,289,3.0,4.0,92,0.01,,---,0.04,VWS V14.01,2013-02-14 15:25:00,
2013-02-14 09:30:00,34.3,32.5,29.60,WSW,253,1.0,4.0,93,0.01,,---,0.04,VWS V14.01,2013-02-14 15:30:00,
2013-02-14 09:35:00,34.3,32.5,29.60,WSW,240,4.0,4.0,93,0.01,,---,0.04,VWS V14.01,2013-02-14 15:35:00,
2013-02-14 09:40:00,34.2,32.4,29.60,West,274,7.0,7.0,93,0.01,,---,0.04,VWS V14.01,2013-02-14 15:40:00,
2013-02-14 09:45:00,34.2,32.4,29.60,West,266,5.0,8.0,93,0.01,,---,0.04,VWS V14.01,2013-02-14 15:45:00,
2013-02-14 09:50:00,34.2,32.7,29.60,West,267,4.0,5.0,94,0.01,,---,0.04,VWS V14.01,2013-02-14 15:50:00,
2013-02-14 09:55:00,34.2,32.7,29.61,WNW,285,3.0,6.0,94,0.02,,---,0.05,VWS V14.01,2013-02-14 15:55:00,
2013-02-14 10:00:00,34.2,32.7,29.61,WSW,257,2.0,9.0,94,0.02,,---,0.05,VWS V14.01,2013-02-14 16:00:00,
2013-02-14 10:05:00,34.2,32.7,29.61,West,261,3.0,3.0,94,0.01,,---,0.05,VWS V14.01,2013-02-14 16:05:00,
2013-02-14 10:10:00,34.2,32.7,29.61,West,261,3.0,5.0,94,0.01,,---,0.05,VWS V14.01,2013-02-14 16:10:00,
2013-02-14 10:15:00,34.1,32.6,29.61,West,269,2.0,4.0,94,0.01,,---,0.05,VWS V14.01,2013-02-14 16:15:00,
2013-02-14 10:20:00,34.1,32.6,29.61,West,276,5.0,5.0,94,0.01,,---,0.05,VWS V14.01,2013-02-14 16:20:00,
2013-02-14 10:25:00,34.1,32.6,29.61,WSW,253,2.0,10.0,94,0.01,,---,0.05,VWS V14.01,2013-02-14 16:25:00,
2013-02-14 10:30:00,34.2,32.9,29.62,West,281,4.0,4.0,95,0.02,,---,0.06,VWS V14.01,2013-02-14 16:30:00,
2013-02-14 10:35:00,34.3,33.0,29.62,SW,221,3.0,4.0,95,0.02,,---,0.06,VWS V14.01,2013-02-14 16:35:00,
2013-02-14 10:40:00,34.3,33.0,29.62,West,278,6.0,8.0,95,0.02,,---,0.06,VWS V14.01,2013-02-14 16:40:00,
2013-02-14 10:45:00,34.4,33.1,29.62,WNW,285,1.0,6.0,95,0.03,,---,0.07,VWS V14.01,2013-02-14 16:45:00,
2013-02-14 10:50:00,34.5,33.2,29.62,South,184,6.0,9.0,95,0.03,,---,0.07,VWS V14.01,2013-02-14 16:50:00,
2013-02-14 10:55:00,34.5,33.2,29.63,WSW,256,4.0,6.0,95,0.03,,---,0.07,VWS V14.01,2013-02-14 16:55:00,
2013-02-14 11:00:00,34.4,33.1,29.63,NNW,345,3.0,7.0,95,0.02,,---,0.07,VWS V14.01,2013-02-14 17:00:00,
2013-02-14 11:05:00,34.3,32.8,29.63,WNW,296,2.0,8.0,94,0.02,,---,0.07,VWS V14.01,2013-02-14 17:05:00,
2013-02-14 11:10:00,34.4,33.1,29.63,SW,218,3.0,4.0,95,0.02,,---,0.07,VWS V14.01,2013-02-14 17:10:00,
2013-02-14 11:15:00,34.4,33.1,29.63,West,265,9.0,11.0,95,0.03,,---,0.08,VWS V14.01,2013-02-14 17:15:00,
2013-02-14 11:20:00,34.3,32.8,29.64,SW,215,3.0,9.0,94,0.03,,---,0.08,VWS V14.01,2013-02-14 17:20:00,
2013-02-14 11:25:00,34.2,32.7,29.64,West,281,3.0,8.0,94,0.03,,---,0.08,VWS V14.01,2013-02-14 17:25:00,
2013-02-14 11:30:00,33.9,32.4,29.64,WNW,289,7.0,12.0,94,0.02,,---,0.08,VWS V14.01,2013-02-14 17:30:00,
2013-02-14 11:35:00,33.6,32.1,29.65,West,259,7.0,12.0,94,0.02,,---,0.08,VWS V14.01,2013-02-14 17:35:00,
2013-02-14 11:40:00,33.4,31.9,29.65,WNW,298,9.0,9.0,94,0.02,,---,0.08,VWS V14.01,2013-02-14 17:40:00,
2013-02-14 11:45:00,33.3,31.8,29.65,NW,307,4.0,13.0,94,0.01,,---,0.08,VWS V14.01,2013-02-14 17:45:00,
2013-02-14 11:50:00,33.2,31.7,29.66,West,266,5.0,8.0,94,0.01,,---,0.08,VWS V14.01,2013-02-14 17:50:00,
2013-02-14 11:55:00,33.1,31.6,29.66,NNW,327,9.0,9.0,94,0.01,,---,0.08,VWS V14.01,2013-02-14 17:55:00,
2013-02-14 12:00:00,33.1,31.8,29.66,NNW,344,8.0,11.0,95,0.02,,---,0.09,VWS V14.01,2013-02-14 18:00:00,
2013-02-14 12:05:00,33.0,31.7,29.66,North,355,11.0,11.0,95,0.02,,---,0.09,VWS V14.01,2013-02-14 18:05:00,
2013-02-14 12:10:00,32.8,31.3,29.66,NW,324,14.0,17.0,94,0.02,,---,0.09,VWS V14.01,2013-02-14 18:10:00,
2013-02-14 12:15:00,32.6,31.1,29.67,NW,317,21.0,21.0,94,0.01,,---,0.09,VWS V14.01,2013-02-14 18:15:00,
2013-02-14 12:20:00,32.2,30.4,29.67,NNW,327,11.0,14.0,93,0.01,,---,0.09,VWS V14.01,2013-02-14 18:20:00,
2013-02-14 12:25:00,32.0,30.2,29.67,NNW,329,15.0,17.0,93,0.01,,---,0.09,VWS V14.01,2013-02-14 18:25:00,
2013-02-14 12:30:00,32.0,29.9,29.67,NE,44,8.0,14.0,92,0.01,,---,0.09,VWS V14.01,2013-02-14 18:30:00,
2013-02-14 12:35:00,32.0,29.9,29.68,North,349,7.0,11.0,92,0.01,,---,0.09,VWS V14.01,2013-02-14 18:35:00,
2013-02-14 12:40:00,32.0,29.9,29.68,NNW,343,16.0,17.0,92,0.01,,---,0.09,VWS V14.01,2013-02-14 18:40:00,
2013-02-14 12:45:00,32.0,29.9,29.68,NW,312,16.0,19.0,92,0.01,,---,0.09,VWS V14.01,2013-02-14 18:45:00,
2013-02-14 12:50:00,32.1,30.0,29.68,WNW,302,13.0,14.0,92,0.01,,---,0.09,VWS V14.01,2013-02-14 18:50:00,
2013-02-14 12:55:00,32.6,30.8,29.68,NNW,346,14.0,19.0,93,0.01,,---,0.09,VWS V14.01,2013-02-14 18:55:00,
2013-02-14 13:00:00,33.0,30.9,29.69,NNW,338,21.0,21.0,92,0.01,,---,0.09,VWS V14.01,2013-02-14 19:00:00,
2013-02-14 13:05:00,33.0,30.7,29.70,North,349,11.0,14.0,91,0.00,,---,0.09,VWS V14.01,2013-02-14 19:05:00,
2013-02-14 13:10:00,33.1,30.8,29.70,NNE,16,6.0,9.0,91,0.01,,---,0.10,VWS V14.01,2013-02-14 19:10:00,
2013-02-14 13:15:00,33.2,30.9,29.71,NNW,327,7.0,7.0,91,0.01,,---,0.10,VWS V14.01,2013-02-14 19:15:00,
2013-02-14 13:20:00,33.0,30.4,29.72,NW,321,8.0,10.0,90,0.01,,---,0.10,VWS V14.01,2013-02-14 19:20:00,
2013-02-14 13:25:00,32.8,30.2,29.72,NW,325,7.0,12.0,90,0.01,,---,0.10,VWS V14.01,2013-02-14 19:25:00,
2013-02-14 13:30:00,32.7,30.1,29.72,NW,314,13.0,15.0,90,0.01,,---,0.10,VWS V14.01,2013-02-14 19:30:00,
2013-02-14 13:35:00,32.6,29.7,29.73,NW,313,14.0,14.0,89,0.01,,---,0.10,VWS V14.01,2013-02-14 19:35:00,
2013-02-14 13:40:00,32.4,29.5,29.73,NW,317,6.0,11.0,89,0.01,,---,0.10,VWS V14.01,2013-02-14 19:40:00,
2013-02-14 13:45:00,32.3,29.4,29.73,NNW,332,12.0,13.0,89,0.01,,---,0.10,VWS V14.01,2013-02-14 19:45:00,
2013-02-14 13:50:00,32.3,29.1,29.73,WNW,288,12.0,13.0,88,0.01,,---,0.10,VWS V14.01,2013-02-14 19:50:00,
2013-02-14 13:55:00,32.3,29.4,29.74,North,360,7.0,14.0,89,0.01,,---,0.10,VWS V14.01,2013-02-14 19:55:00,
2013-02-14 14:00:00,32.4,29.5,29.74,NW,320,12.0,12.0,89,0.01,,---,0.10,VWS V14.01,2013-02-14 20:00:00,
2013-02-14 14:05:00,32.5,29.4,29.74,WNW,285,14.0,14.0,88,0.01,,---,0.10,VWS V14.01,2013-02-14 20:05:00,
2013-02-14 14:10:00,32.5,29.6,29.74,WNW,297,5.0,8.0,89,0.00,,---,0.10,VWS V14.01,2013-02-14 20:10:00,
2013-02-14 14:15:00,32.5,29.6,29.75,WNW,300,12.0,12.0,89,0.00,,---,0.10,VWS V14.01,2013-02-14 20:15:00,
2013-02-14 14:20:00,32.5,29.6,29.75,West,267,5.0,11.0,89,0.00,,---,0.10,VWS V14.01,2013-02-14 20:20:00,
2013-02-14 14:25:00,32.5,29.6,29.76,WNW,296,11.0,11.0,89,0.00,,---,0.10,VWS V14.01,2013-02-14 20:25:00,
2013-02-14 14:30:00,32.5,29.6,29.76,NW,314,12.0,12.0,89,0.00,,---,0.10,VWS V14.01,2013-02-14 20:30:00,
2013-02-14 14:35:00,32.5,29.9,29.76,NW,306,6.0,10.0,90,0.00,,---,0.10,VWS V14.01,2013-02-14 20:35:00,
2013-02-14 14:40:00,32.4,29.8,29.76,WSW,237,4.0,16.0,90,0.00,,---,0.10,VWS V14.01,2013-02-14 20:40:00,
2013-02-14 14:45:00,32.3,29.7,29.76,West,281,5.0,17.0,90,0.00,,---,0.10,VWS V14.01,2013-02-14 20:45:00,
2013-02-14 14:50:00,32.2,29.6,29.77,West,278,3.0,7.0,90,0.00,,---,0.10,VWS V14.01,2013-02-14 20:50:00,
2013-02-14 14:55:00,32.1,29.5,29.77,WNW,296,5.0,11.0,90,0.00,,---,0.10,VWS V14.01,2013-02-14 20:55:00,
2013-02-14 15:00:00,31.9,29.3,29.77,WNW,282,12.0,12.0,90,0.00,,---,0.10,VWS V14.01,2013-02-14 21:00:00,
2013-02-14 15:05:00,31.7,29.1,29.77,West,261,2.0,13.0,90,0.00,,---,0.10,VWS V14.01,2013-02-14 21:05:00,
2013-02-14 15:10:00,31.6,29.0,29.78,WNW,299,11.0,13.0,90,0.00,,---,0.10,VWS V14.01,2013-02-14 21:10:00,
2013-02-14 15:15:00,31.6,29.0,29.78,SSW,207,6.0,12.0,90,0.00,,---,0.10,VWS V14.01,2013-02-14 21:15:00,
2013-02-14 15:20:00,31.6,29.0,29.79,West,267,3.0,12.0,90,0.00,,---,0.10,VWS V14.01,2013-02-14 21:20:00,
2013-02-14 15:25:00,31.5,28.9,29.79,NW,325,9.0,18.0,90,0.00,,---,0.10,VWS V14.01,2013-02-14 21:25:00,
2013-02-14 15:30:00,31.4,28.8,29.80,West,259,6.0,10.0,90,0.00,,---,0.10,VWS V14.01,2013-02-14 21:30:00,
2013-02-14 15:35:00,31.4,29.1,29.80,WNW,286,4.0,4.0,91,0.00,,---,0.10,VWS V14.01,2013-02-14 21:35:00,
2013-02-14 15:40:00,31.3,29.0,29.80,West,277,6.0,13.0,91,0.00,,---,0.10,VWS V14.01,2013-02-14 21:40:00,
2013-02-14 15:45:00,31.1,28.8,29.81,WNW,284,13.0,13.0,91,0.00,,---,0.10,VWS V14.01,2013-02-14 21:45:00,
2013-02-14 15:50:00,31.0,28.7,29.82,NW,323,6.0,8.0,91,0.00,,---,0.10,VWS V14.01,2013-02-14 21:50:00,
2013-02-14 15:55:00,30.8,28.5,29.82,NNW,332,10.0,10.0,91,0.00,,---,0.10,VWS V14.01,2013-02-14 21:55:00,
2013-02-14 16:00:00,30.6,28.3,29.82,NW,315,6.0,8.0,91,0.00,,---,0.10,VWS V14.01,2013-02-14 22:00:00,
2013-02-14 16:05:00,30.3,28.0,29.83,NNW,336,7.0,10.0,91,0.00,,---,0.10,VWS V14.01,2013-02-14 22:05:00,
2013-02-14 16:10:00,30.2,28.2,29.83,NW,309,8.0,8.0,92,0.00,,---,0.10,VWS V14.01,2013-02-14 22:10:00,
2013-02-14 16:15:00,30.1,28.1,29.83,WNW,294,6.0,6.0,92,0.00,,---,0.10,VWS V14.01,2013-02-14 22:15:00,
2013-02-14 16:20:00,30.1,28.1,29.84,NW,321,9.0,9.0,92,0.00,,---,0.10,VWS V14.01,2013-02-14 22:20:00,
2013-02-14 16:25:00,30.1,28.1,29.84,WNW,298,7.0,7.0,92,0.00,,---,0.10,VWS V14.01,2013-02-14 22:25:00,
2013-02-14 16:30:00,30.1,28.1,29.84,NNW,339,6.0,11.0,92,0.00,,---,0.10,VWS V14.01,2013-02-14 22:30:00,
2013-02-14 16:35:00,30.1,28.1,29.85,WNW,284,4.0,8.0,92,0.00,,---,0.10,VWS V14.01,2013-02-14 22:35:00,
2013-02-14 16:40:00,30.1,28.1,29.85,WNW,290,10.0,10.0,92,0.00,,---,0.10,VWS V14.01,2013-02-14 22:40:00,
2013-02-14 16:45:00,30.1,28.1,29.85,NW,311,10.0,12.0,92,0.00,,---,0.10,VWS V14.01,2013-02-14 22:45:00,
2013-02-14 16:50:00,30.1,28.1,29.86,SW,219,2.0,5.0,92,0.00,,---,0.10,VWS V14.01,2013-02-14 22:50:00,
2013-02-14 16:55:00,30.0,28.0,29.86,West,275,2.0,4.0,92,0.00,,---,0.10,VWS V14.01,2013-02-14 22:55:00,
2013-02-14 17:00:00,29.9,27.9,29.86,WSW,250,0.0,9.0,92,0.00,,---,0.10,VWS V14.01,2013-02-14 23:00:00,
2013-02-14 17:05:00,29.9,28.1,29.86,West,279,5.0,7.0,93,0.00,,---,0.10,VWS V14.01,2013-02-14 23:05:00,
2013-02-14 17:10:00,29.8,27.8,29.87,West,270,2.0,12.0,92,0.00,,---,0.10,VWS V14.01,2013-02-14 23:10:00,
2013-02-14 17:15:00,29.7,27.9,29.88,WSW,257,5.0,5.0,93,0.00,,---,0.10,VWS V14.01,2013-02-14 23:15:00,
2013-02-14 17:20:00,29.7,27.9,29.88,SW,226,3.0,9.0,93,0.00,,---,0.10,VWS V14.01,2013-02-14 23:20:00,
2013-02-14 17:25:00,29.6,27.8,29.88,West,263,9.0,9.0,93,0.00,,---,0.10,VWS V14.01,2013-02-14 23:25:00,
2013-02-14 17:30:00,29.6,27.8,29.88,WNW,286,9.0,9.0,93,0.00,,---,0.10,VWS V14.01,2013-02-14 23:30:00,
2013-02-14 17:35:00,29.5,27.7,29.89,West,267,6.0,6.0,93,0.00,,---,0.10,VWS V14.01,2013-02-14 23:35:00,
2013-02-14 17:40:00,29.5,27.7,29.89,WNW,294,8.0,8.0,93,0.00,,---,0.10,VWS V14.01,2013-02-14 23:40:00,
2013-02-14 17:45:00,29.4,27.6,29.89,WSW,257,7.0,11.0,93,0.00,,---,0.10,VWS V14.01,2013-02-14 23:45:00,
2013-02-14 17:50:00,29.4,27.6,29.89,WSW,247,4.0,10.0,93,0.00,,---,0.10,VWS V14.01,2013-02-14 23:50:00,
2013-02-14 17:55:00,29.4,27.6,29.89,WSW,258,3.0,9.0,93,0.00,,---,0.10,VWS V14.01,2013-02-14 23:55:00,
2013-02-14 18:00:00,29.4,27.6,29.89,WNW,282,8.0,15.0,93,0.00,,---,0.10,VWS V14.01,2013-02-15 00:00:00,
2013-02-14 18:05:00,29.4,27.6,29.90,WSW,252,2.0,5.0,93,0.00,,---,0.10,VWS V14.01,2013-02-15 00:05:00,
2013-02-14 18:10:00,29.4,27.6,29.90,SW,227,4.0,5.0,93,0.00,,---,0.10,VWS V14.01,2013-02-15 00:10:00,
2013-02-14 18:15:00,29.4,27.6,29.90,West,263,6.0,7.0,93,0.00,,---,0.10,VWS V14.01,2013-02-15 00:15:00,
2013-02-14 18:20:00,29.4,27.6,29.90,NW,309,6.0,8.0,93,0.00,,---,0.10,VWS V14.01,2013-02-15 00:20:00,
2013-02-14 18:25:00,29.4,27.4,29.91,SW,221,3.0,7.0,92,0.00,,---,0.10,VWS V14.01,2013-02-15 00:25:00,
2013-02-14 18:30:00,29.4,27.4,29.91,North,355,5.0,8.0,92,0.00,,---,0.10,VWS V14.01,2013-02-15 00:30:00,
2013-02-14 18:35:00,29.5,27.5,29.91,NNW,338,5.0,6.0,92,0.00,,---,0.10,VWS V14.01,2013-02-15 00:35:00,
2013-02-14 18:40:00,29.5,27.2,29.91,SW,232,1.0,1.0,91,0.00,,---,0.10,VWS V14.01,2013-02-15 00:40:00,
2013-02-14 18:45:00,29.5,27.2,29.92,WNW,284,8.0,8.0,91,0.00,,---,0.10,VWS V14.01,2013-02-15 00:45:00,
2013-02-14 18:50:00,29.5,26.9,29.92,NW,311,5.0,10.0,90,0.00,,---,0.10,VWS V14.01,2013-02-15 00:50:00,
2013-02-14 18:55:00,29.4,26.8,29.92,West,267,3.0,4.0,90,0.00,,---,0.10,VWS V14.01,2013-02-15 00:55:00,
2013-02-14 19:00:00,29.4,26.6,29.92,NW,320,4.0,8.0,89,0.00,,---,0.10,VWS V14.01,2013-02-15 01:00:00,
2013-02-14 19:05:00,29.4,26.6,29.92,WNW,300,6.0,6.0,89,0.00,,---,0.10,VWS V14.01,2013-02-15 01:05:00,
2013-02-14 19:10:00,29.4,26.6,29.92,West,261,10.0,10.0,89,0.00,,---,0.10,VWS V14.01,2013-02-15 01:10:00,
2013-02-14 19:15:00,29.4,26.3,29.92,NW,306,5.0,6.0,88,0.00,,---,0.10,VWS V14.01,2013-02-15 01:15:00,
2013-02-14 19:20:00,29.4,26.0,29.92,NW,313,2.0,4.0,87,0.00,,---,0.10,VWS V14.01,2013-02-15 01:20:00,
2013-02-14 19:25:00,29.3,25.9,29.92,WNW,290,3.0,6.0,87,0.00,,---,0.10,VWS V14.01,2013-02-15 01:25:00,
2013-02-14 19:30:00,29.3,25.6,29.93,NW,306,6.0,6.0,86,0.00,,---,0.10,VWS V14.01,2013-02-15 01:30:00,
2013-02-14 19:35:00,29.2,25.5,29.93,NW,321,2.0,7.0,86,0.00,,---,0.10,VWS V14.01,2013-02-15 01:35:00,
2013-02-14 19:40:00,29.1,25.4,29.93,WSW,252,5.0,5.0,86,0.00,,---,0.10,VWS V14.01,2013-02-15 01:40:00,
2013-02-14 19:45:00,29.0,25.4,29.93,NW,306,7.0,7.0,86,0.00,,---,0.10,VWS V14.01,2013-02-15 01:45:00,
2013-02-14 19:50:00,28.9,25.2,29.93,WNW,290,1.0,5.0,86,0.00,,---,0.10,VWS V14.01,2013-02-15 01:50:00,
2013-02-14 19:55:00,28.7,24.8,29.93,WNW,283,1.0,3.0,85,0.00,,---,0.10,VWS V14.01,2013-02-15 01:55:00,
2013-02-14 20:00:00,28.5,24.9,29.93,WNW,284,0.0,3.0,86,0.00,,---,0.10,VWS V14.01,2013-02-15 02:00:00,
2013-02-14 20:05:00,28.3,24.4,29.93,WSW,256,2.0,5.0,85,0.00,,---,0.10,VWS V14.01,2013-02-15 02:05:00,
2013-02-14 20:10:00,28.1,24.2,29.93,WNW,289,5.0,6.0,85,0.00,,---,0.10,VWS V14.01,2013-02-15 02:10:00,
2013-02-14 20:15:00,27.9,24.0,29.94,NW,306,1.0,4.0,85,0.00,,---,0.10,VWS V14.01,2013-02-15 02:15:00,
2013-02-14 20:20:00,27.8,23.9,29.94,NW,305,4.0,4.0,85,0.00,,---,0.10,VWS V14.01,2013-02-15 02:20:00,
2013-02-14 20:25:00,27.6,23.7,29.94,WNW,283,3.0,3.0,85,0.00,,---,0.10,VWS V14.01,2013-02-15 02:25:00,
2013-02-14 20:30:00,27.5,23.9,29.94,WNW,298,0.0,3.0,86,0.00,,---,0.10,VWS V14.01,2013-02-15 02:30:00,
2013-02-14 20:35:00,27.5,23.9,29.94,NW,315,2.0,4.0,86,0.00,,---,0.10,VWS V14.01,2013-02-15 02:35:00,
2013-02-14 20:40:00,27.6,24.0,29.95,WNW,291,1.0,3.0,86,0.00,,---,0.10,VWS V14.01,2013-02-15 02:40:00,
2013-02-14 20:45:00,27.7,24.1,29.95,WNW,292,3.0,5.0,86,0.00,,---,0.10,VWS V14.01,2013-02-15 02:45:00,
2013-02-14 20:50:00,27.8,24.2,29.95,NNW,331,3.0,4.0,86,0.00,,---,0.10,VWS V14.01,2013-02-15 02:50:00,
2013-02-14 20:55:00,28.1,24.5,29.95,North,355,4.0,5.0,86,0.00,,---,0.10,VWS V14.01,2013-02-15 02:55:00,
2013-02-14 21:00:00,28.4,24.5,29.96,NNW,348,6.0,8.0,85,0.00,,---,0.10,VWS V14.01,2013-02-15 03:00:00,
2013-02-14 21:05:00,28.7,25.0,29.95,NNW,342,9.0,10.0,86,0.00,,---,0.10,VWS V14.01,2013-02-15 03:05:00,
2013-02-14 21:10:00,28.8,25.1,29.96,North,5,7.0,7.0,86,0.00,,---,0.10,VWS V14.01,2013-02-15 03:10:00,
2013-02-14 21:15:00,28.7,25.0,29.96,North,5,6.0,9.0,86,0.00,,---,0.10,VWS V14.01,2013-02-15 03:15:00,
2013-02-14 21:20:00,28.6,25.2,29.96,NNW,338,7.0,7.0,87,0.00,,---,0.10,VWS V14.01,2013-02-15 03:20:00,
2013-02-14 21:25:00,28.4,25.0,29.96,NW,326,4.0,4.0,87,0.00,,---,0.10,VWS V14.01,2013-02-15 03:25:00,
2013-02-14 21:30:00,28.3,24.9,29.96,NNW,337,7.0,7.0,87,0.00,,---,0.10,VWS V14.01,2013-02-15 03:30:00,
2013-02-14 21:35:00,28.1,25.0,29.96,NNW,337,4.0,5.0,88,0.00,,---,0.10,VWS V14.01,2013-02-15 03:35:00,
2013-02-14 21:40:00,28.0,24.9,29.96,NW,305,7.0,9.0,88,0.00,,---,0.10,VWS V14.01,2013-02-15 03:40:00,
2013-02-14 21:45:00,27.9,25.1,29.96,NW,319,5.0,5.0,89,0.00,,---,0.10,VWS V14.01,2013-02-15 03:45:00,
2013-02-14 21:50:00,27.8,25.0,29.97,NNW,336,3.0,5.0,89,0.00,,---,0.10,VWS V14.01,2013-02-15 03:50:00,
2013-02-14 21:55:00,27.7,25.2,29.96,NNW,335,3.0,3.0,90,0.00,,---,0.10,VWS V14.01,2013-02-15 03:55:00,
2013-02-14 22:00:00,27.6,25.1,29.97,NW,323,3.0,5.0,90,0.00,,---,0.10,VWS V14.01,2013-02-15 04:00:00,
2013-02-14 22:05:00,27.6,25.3,29.97,NW,323,0.0,0.0,91,0.00,,---,0.10,VWS V14.01,2013-02-15 04:05:00,
2013-02-14 22:10:00,27.5,25.2,29.97,NW,324,0.0,2.0,91,0.00,,---,0.10,VWS V14.01,2013-02-15 04:10:00,
2013-02-14 22:15:00,27.5,25.2,29.97,NNW,334,1.0,3.0,91,0.00,,---,0.10,VWS V14.01,2013-02-15 04:15:00,
2013-02-14 22:20:00,27.4,25.4,29.97,NNW,334,0.0,0.0,92,0.00,,---,0.10,VWS V14.01,2013-02-15 04:20:00,
2013-02-14 22:25:00,27.3,25.3,29.97,North,355,1.0,1.0,92,0.00,,---,0.10,VWS V14.01,2013-02-15 04:25:00,
2013-02-14 22:30:00,27.3,25.3,29.97,NNW,334,5.0,6.0,92,0.00,,---,0.10,VWS V14.01,2013-02-15 04:30:00,
2013-02-14 22:35:00,27.0,24.7,29.98,NW,325,11.0,12.0,91,0.00,,---,0.10,VWS V14.01,2013-02-15 04:35:00,
2013-02-14 22:40:00,26.6,24.3,29.98,NNW,327,9.0,10.0,91,0.00,,---,0.10,VWS V14.01,2013-02-15 04:40:00,
2013-02-14 22:45:00,26.2,23.9,29.98,NNW,343,7.0,10.0,91,0.00,,---,0.10,VWS V14.01,2013-02-15 04:45:00,
2013-02-14 22:50:00,26.0,23.7,29.98,North,360,5.0,9.0,91,0.00,,---,0.10,VWS V14.01,2013-02-15 04:50:00,
2013-02-14 22:55:00,25.7,23.4,29.98,North,5,8.0,9.0,91,0.00,,---,0.10,VWS V14.01,2013-02-15 04:55:00,
2013-02-14 23:00:00,25.6,23.1,29.99,North,9,9.0,11.0,90,0.00,,---,0.10,VWS V14.01,2013-02-15 05:00:00,
2013-02-14 23:05:00,25.3,22.8,29.99,North,5,12.0,12.0,90,0.00,,---,0.10,VWS V14.01,2013-02-15 05:05:00,
2013-02-14 23:10:00,25.0,22.2,29.99,NNE,18,6.0,8.0,89,0.00,,---,0.10,VWS V14.01,2013-02-15 05:10:00,
2013-02-14 23:15:00,24.8,22.3,29.99,NNE,12,6.0,10.0,90,0.00,,---,0.10,VWS V14.01,2013-02-15 05:15:00,
2013-02-14 23:20:00,24.6,22.1,30.00,North,5,10.0,10.0,90,0.00,,---,0.10,VWS V14.01,2013-02-15 05:20:00,
2013-02-14 23:25:00,24.5,22.0,30.00,North,360,8.0,11.0,90,0.00,,---,0.10,VWS V14.01,2013-02-15 05:25:00,
2013-02-14 23:30:00,24.4,21.9,30.00,NNE,18,7.0,10.0,90,0.00,,---,0.10,VWS V14.01,2013-02-15 05:30:00,
2013-02-14 23:35:00,24.4,22.2,30.00,NNE,17,5.0,8.0,91,0.00,,---,0.10,VWS V14.01,2013-02-15 05:35:00,
2013-02-14 23:40:00,24.3,22.1,30.00,NNW,340,4.0,5.0,91,0.00,,---,0.10,VWS V14.01,2013-02-15 05:40:00,
2013-02-14 23:45:00,24.4,22.4,30.01,NW,311,4.0,6.0,92,0.00,,---,0.10,VWS V14.01,2013-02-15 05:45:00,
2013-02-14 23:50:00,24.4,22.4,30.01,North,355,6.0,11.0,92,0.00,,---,0.10,VWS V14.01,2013-02-15 05:50:00,
2013-02-14 23:55:00,24.2,22.0,30.01,NNW,346,12.0,12.0,91,0.00,,---,0.10,VWS V14.01,2013-02-15 05:55:00,